sensor_id;sensor_type;location;lat;lon;timestamp;P1;durP1;ratioP1;P2;durP2;ratioP2
553;SDS011;59;48.778;9.156;2022-08-25T00:00:27;4.37;;;3.83;;
553;SDS011;59;48.778;9.156;2022-08-25T00:02:54;10.73;;;4.50;;
553;SDS011;59;48.778;9.156;2022-08-25T00:05:20;6.20;;;4.67;;
553;SDS011;59;48.778;9.156;2022-08-25T00:07:45;8.57;;;4.90;;
553;SDS011;59;48.778;9.156;2022-08-25T00:10:11;6.97;;;4.80;;
553;SDS011;59;48.778;9.156;2022-08-25T00:12:37;9.00;;;5.10;;
553;SDS011;59;48.778;9.156;2022-08-25T00:15:03;6.10;;;4.40;;
553;SDS011;59;48.778;9.156;2022-08-25T00:17:29;3.90;;;3.40;;
553;SDS011;59;48.778;9.156;2022-08-25T00:19:55;6.23;;;4.33;;
553;SDS011;59;48.778;9.156;2022-08-25T00:22:20;5.07;;;4.27;;
553;SDS011;59;48.778;9.156;2022-08-25T00:24:46;4.53;;;3.97;;
553;SDS011;59;48.778;9.156;2022-08-25T00:27:12;4.97;;;3.70;;
553;SDS011;59;48.778;9.156;2022-08-25T00:29:38;5.60;;;4.20;;
553;SDS011;59;48.778;9.156;2022-08-25T00:32:03;6.67;;;4.40;;
553;SDS011;59;48.778;9.156;2022-08-25T00:34:32;7.87;;;4.57;;
553;SDS011;59;48.778;9.156;2022-08-25T00:37:00;6.60;;;4.33;;
553;SDS011;59;48.778;9.156;2022-08-25T00:39:26;6.70;;;4.40;;
553;SDS011;59;48.778;9.156;2022-08-25T00:41:53;5.90;;;4.10;;
553;SDS011;59;48.778;9.156;2022-08-25T00:44:23;6.57;;;4.40;;
553;SDS011;59;48.778;9.156;2022-08-25T00:46:52;5.30;;;4.20;;
553;SDS011;59;48.778;9.156;2022-08-25T00:51:58;4.93;;;3.80;;
553;SDS011;59;48.778;9.156;2022-08-25T00:54:27;8.33;;;4.47;;
553;SDS011;59;48.778;9.156;2022-08-25T00:56:59;3.77;;;3.50;;
553;SDS011;59;48.778;9.156;2022-08-25T00:59:25;4.80;;;3.73;;
553;SDS011;59;48.778;9.156;2022-08-25T01:01:51;5.23;;;4.10;;
553;SDS011;59;48.778;9.156;2022-08-25T01:04:18;4.03;;;3.60;;
553;SDS011;59;48.778;9.156;2022-08-25T01:06:44;4.03;;;3.63;;
553;SDS011;59;48.778;9.156;2022-08-25T01:09:11;3.77;;;3.40;;
553;SDS011;59;48.778;9.156;2022-08-25T01:11:38;3.80;;;3.37;;
553;SDS011;59;48.778;9.156;2022-08-25T01:14:04;4.83;;;3.73;;
553;SDS011;59;48.778;9.156;2022-08-25T01:16:35;9.50;;;3.40;;
553;SDS011;59;48.778;9.156;2022-08-25T01:19:02;3.83;;;3.50;;
553;SDS011;59;48.778;9.156;2022-08-25T01:21:36;3.80;;;3.43;;
553;SDS011;59;48.778;9.156;2022-08-25T01:24:04;4.10;;;3.90;;
553;SDS011;59;48.778;9.156;2022-08-25T01:26:31;3.40;;;3.13;;
553;SDS011;59;48.778;9.156;2022-08-25T01:28:58;4.37;;;3.70;;
553;SDS011;59;48.778;9.156;2022-08-25T01:31:44;3.43;;;3.30;;
553;SDS011;59;48.778;9.156;2022-08-25T01:34:11;3.70;;;3.40;;
553;SDS011;59;48.778;9.156;2022-08-25T01:36:38;4.00;;;3.70;;
553;SDS011;59;48.778;9.156;2022-08-25T01:39:05;3.60;;;3.23;;
553;SDS011;59;48.778;9.156;2022-08-25T01:44:04;4.63;;;3.53;;
553;SDS011;59;48.778;9.156;2022-08-25T01:46:30;3.83;;;3.37;;
553;SDS011;59;48.778;9.156;2022-08-25T01:48:56;4.27;;;3.70;;
553;SDS011;59;48.778;9.156;2022-08-25T01:51:22;3.67;;;3.17;;
553;SDS011;59;48.778;9.156;2022-08-25T01:53:49;3.70;;;3.47;;
553;SDS011;59;48.778;9.156;2022-08-25T01:56:15;4.13;;;3.53;;
553;SDS011;59;48.778;9.156;2022-08-25T01:58:46;3.77;;;3.37;;
553;SDS011;59;48.778;9.156;2022-08-25T02:01:17;6.73;;;3.50;;
553;SDS011;59;48.778;9.156;2022-08-25T02:03:46;4.73;;;4.20;;
553;SDS011;59;48.778;9.156;2022-08-25T02:06:14;4.10;;;3.60;;
553;SDS011;59;48.778;9.156;2022-08-25T02:08:42;4.07;;;3.67;;
553;SDS011;59;48.778;9.156;2022-08-25T02:11:12;4.03;;;3.80;;
553;SDS011;59;48.778;9.156;2022-08-25T02:13:38;4.33;;;3.90;;
553;SDS011;59;48.778;9.156;2022-08-25T02:16:05;3.80;;;3.50;;
553;SDS011;59;48.778;9.156;2022-08-25T02:18:31;3.97;;;3.57;;
553;SDS011;59;48.778;9.156;2022-08-25T02:20:57;4.83;;;4.07;;
553;SDS011;59;48.778;9.156;2022-08-25T02:23:22;4.17;;;3.80;;
553;SDS011;59;48.778;9.156;2022-08-25T02:25:48;3.87;;;3.70;;
553;SDS011;59;48.778;9.156;2022-08-25T02:28:14;3.73;;;3.47;;
553;SDS011;59;48.778;9.156;2022-08-25T02:30:41;3.97;;;3.80;;
553;SDS011;59;48.778;9.156;2022-08-25T02:33:07;4.07;;;3.47;;
553;SDS011;59;48.778;9.156;2022-08-25T02:35:33;4.57;;;3.70;;
553;SDS011;59;48.778;9.156;2022-08-25T02:37:59;4.67;;;4.33;;
553;SDS011;59;48.778;9.156;2022-08-25T02:40:25;4.70;;;4.00;;
553;SDS011;59;48.778;9.156;2022-08-25T02:42:51;4.30;;;3.93;;
553;SDS011;59;48.778;9.156;2022-08-25T02:45:18;4.27;;;3.63;;
553;SDS011;59;48.778;9.156;2022-08-25T02:47:44;4.70;;;3.77;;
553;SDS011;59;48.778;9.156;2022-08-25T02:50:09;5.37;;;4.00;;
553;SDS011;59;48.778;9.156;2022-08-25T02:52:35;4.40;;;3.87;;
553;SDS011;59;48.778;9.156;2022-08-25T02:55:02;5.13;;;4.37;;
553;SDS011;59;48.778;9.156;2022-08-25T02:57:29;6.57;;;4.50;;
553;SDS011;59;48.778;9.156;2022-08-25T02:59:55;4.80;;;4.20;;
553;SDS011;59;48.778;9.156;2022-08-25T03:02:22;5.80;;;4.33;;
553;SDS011;59;48.778;9.156;2022-08-25T03:04:48;4.50;;;4.00;;
553;SDS011;59;48.778;9.156;2022-08-25T03:07:14;5.37;;;4.20;;
553;SDS011;59;48.778;9.156;2022-08-25T03:09:41;5.10;;;4.00;;
553;SDS011;59;48.778;9.156;2022-08-25T03:12:08;5.50;;;4.70;;
553;SDS011;59;48.778;9.156;2022-08-25T03:14:34;4.60;;;4.13;;
553;SDS011;59;48.778;9.156;2022-08-25T03:17:00;5.47;;;4.20;;
553;SDS011;59;48.778;9.156;2022-08-25T03:19:26;6.73;;;5.23;;
553;SDS011;59;48.778;9.156;2022-08-25T03:21:51;5.87;;;5.00;;
553;SDS011;59;48.778;9.156;2022-08-25T03:24:20;5.33;;;4.37;;
553;SDS011;59;48.778;9.156;2022-08-25T03:26:46;5.07;;;4.43;;
553;SDS011;59;48.778;9.156;2022-08-25T03:29:18;5.20;;;4.63;;
553;SDS011;59;48.778;9.156;2022-08-25T03:31:49;7.63;;;4.47;;
553;SDS011;59;48.778;9.156;2022-08-25T03:34:16;4.70;;;4.40;;
553;SDS011;59;48.778;9.156;2022-08-25T03:36:43;4.80;;;4.50;;
553;SDS011;59;48.778;9.156;2022-08-25T03:39:11;4.13;;;3.90;;
553;SDS011;59;48.778;9.156;2022-08-25T03:41:37;5.40;;;4.20;;
553;SDS011;59;48.778;9.156;2022-08-25T03:44:03;5.50;;;4.23;;
553;SDS011;59;48.778;9.156;2022-08-25T03:46:36;4.47;;;4.13;;
553;SDS011;59;48.778;9.156;2022-08-25T03:49:04;4.50;;;4.20;;
553;SDS011;59;48.778;9.156;2022-08-25T03:51:32;4.97;;;4.57;;
553;SDS011;59;48.778;9.156;2022-08-25T03:53:59;5.07;;;4.37;;
553;SDS011;59;48.778;9.156;2022-08-25T03:56:26;6.50;;;4.53;;
553;SDS011;59;48.778;9.156;2022-08-25T03:58:52;5.80;;;5.13;;
553;SDS011;59;48.778;9.156;2022-08-25T04:01:18;4.63;;;4.30;;
553;SDS011;59;48.778;9.156;2022-08-25T04:03:44;5.37;;;4.17;;
553;SDS011;59;48.778;9.156;2022-08-25T04:06:10;5.93;;;4.43;;
553;SDS011;59;48.778;9.156;2022-08-25T04:08:36;5.20;;;4.43;;
553;SDS011;59;48.778;9.156;2022-08-25T04:11:06;8.03;;;4.87;;
553;SDS011;59;48.778;9.156;2022-08-25T04:13:33;4.83;;;4.50;;
553;SDS011;59;48.778;9.156;2022-08-25T04:15:58;5.17;;;4.40;;
553;SDS011;59;48.778;9.156;2022-08-25T04:18:24;6.03;;;4.73;;
553;SDS011;59;48.778;9.156;2022-08-25T04:20:50;5.27;;;4.03;;
553;SDS011;59;48.778;9.156;2022-08-25T04:23:15;6.30;;;5.13;;
553;SDS011;59;48.778;9.156;2022-08-25T04:25:41;5.43;;;4.90;;
553;SDS011;59;48.778;9.156;2022-08-25T04:28:08;6.40;;;4.87;;
553;SDS011;59;48.778;9.156;2022-08-25T04:30:34;5.60;;;4.77;;
553;SDS011;59;48.778;9.156;2022-08-25T04:33:00;5.77;;;4.73;;
553;SDS011;59;48.778;9.156;2022-08-25T04:35:25;7.37;;;4.77;;
553;SDS011;59;48.778;9.156;2022-08-25T04:37:51;4.57;;;4.27;;
553;SDS011;59;48.778;9.156;2022-08-25T04:40:17;5.07;;;4.43;;
553;SDS011;59;48.778;9.156;2022-08-25T04:42:42;5.43;;;5.10;;
553;SDS011;59;48.778;9.156;2022-08-25T04:45:11;5.70;;;4.80;;
553;SDS011;59;48.778;9.156;2022-08-25T04:47:38;6.87;;;5.43;;
553;SDS011;59;48.778;9.156;2022-08-25T04:50:05;6.47;;;4.70;;
553;SDS011;59;48.778;9.156;2022-08-25T04:52:31;6.13;;;4.80;;
553;SDS011;59;48.778;9.156;2022-08-25T04:54:57;5.50;;;4.53;;
553;SDS011;59;48.778;9.156;2022-08-25T04:57:24;6.83;;;5.40;;
553;SDS011;59;48.778;9.156;2022-08-25T04:59:50;10.13;;;5.50;;
553;SDS011;59;48.778;9.156;2022-08-25T05:02:16;7.40;;;5.30;;
553;SDS011;59;48.778;9.156;2022-08-25T05:04:41;6.50;;;5.10;;
553;SDS011;59;48.778;9.156;2022-08-25T05:07:07;7.90;;;5.33;;
553;SDS011;59;48.778;9.156;2022-08-25T05:09:33;6.10;;;5.20;;
553;SDS011;59;48.778;9.156;2022-08-25T05:11:59;6.23;;;5.30;;
553;SDS011;59;48.778;9.156;2022-08-25T05:14:26;6.27;;;5.00;;
553;SDS011;59;48.778;9.156;2022-08-25T05:16:51;6.90;;;5.40;;
553;SDS011;59;48.778;9.156;2022-08-25T05:19:18;5.80;;;5.20;;
553;SDS011;59;48.778;9.156;2022-08-25T05:21:44;7.30;;;5.70;;
553;SDS011;59;48.778;9.156;2022-08-25T05:24:09;9.23;;;5.90;;
553;SDS011;59;48.778;9.156;2022-08-25T05:26:35;7.03;;;5.40;;
553;SDS011;59;48.778;9.156;2022-08-25T05:29:01;8.17;;;6.30;;
553;SDS011;59;48.778;9.156;2022-08-25T05:31:29;6.80;;;5.63;;
553;SDS011;59;48.778;9.156;2022-08-25T05:33:55;12.87;;;6.40;;
553;SDS011;59;48.778;9.156;2022-08-25T05:36:22;7.73;;;6.30;;
553;SDS011;59;48.778;9.156;2022-08-25T05:38:48;6.93;;;6.00;;
553;SDS011;59;48.778;9.156;2022-08-25T05:41:18;9.10;;;6.60;;
553;SDS011;59;48.778;9.156;2022-08-25T05:43:46;7.40;;;6.07;;
553;SDS011;59;48.778;9.156;2022-08-25T05:46:13;9.73;;;7.10;;
553;SDS011;59;48.778;9.156;2022-08-25T05:48:40;8.13;;;6.43;;
553;SDS011;59;48.778;9.156;2022-08-25T05:51:11;8.73;;;6.43;;
553;SDS011;59;48.778;9.156;2022-08-25T05:53:39;9.67;;;6.37;;
553;SDS011;59;48.778;9.156;2022-08-25T05:56:07;9.03;;;7.03;;
553;SDS011;59;48.778;9.156;2022-08-25T05:58:33;7.17;;;6.47;;
553;SDS011;59;48.778;9.156;2022-08-25T06:00:59;7.17;;;6.10;;
553;SDS011;59;48.778;9.156;2022-08-25T06:03:43;9.70;;;6.90;;
553;SDS011;59;48.778;9.156;2022-08-25T06:06:10;7.00;;;5.80;;
553;SDS011;59;48.778;9.156;2022-08-25T06:08:36;6.90;;;5.80;;
553;SDS011;59;48.778;9.156;2022-08-25T06:11:01;7.93;;;6.37;;
553;SDS011;59;48.778;9.156;2022-08-25T06:13:27;7.47;;;6.10;;
553;SDS011;59;48.778;9.156;2022-08-25T06:15:56;9.07;;;6.40;;
553;SDS011;59;48.778;9.156;2022-08-25T06:18:23;8.50;;;6.60;;
553;SDS011;59;48.778;9.156;2022-08-25T06:20:48;7.83;;;6.77;;
553;SDS011;59;48.778;9.156;2022-08-25T06:23:15;10.10;;;7.13;;
553;SDS011;59;48.778;9.156;2022-08-25T06:25:47;8.13;;;6.07;;
553;SDS011;59;48.778;9.156;2022-08-25T06:28:17;6.90;;;5.97;;
553;SDS011;59;48.778;9.156;2022-08-25T06:30:43;10.93;;;7.97;;
553;SDS011;59;48.778;9.156;2022-08-25T06:33:09;10.87;;;7.17;;
553;SDS011;59;48.778;9.156;2022-08-25T06:35:35;9.77;;;7.10;;
553;SDS011;59;48.778;9.156;2022-08-25T06:38:02;10.80;;;7.70;;
553;SDS011;59;48.778;9.156;2022-08-25T06:40:27;7.00;;;6.50;;
553;SDS011;59;48.778;9.156;2022-08-25T06:42:53;10.20;;;6.43;;
553;SDS011;59;48.778;9.156;2022-08-25T06:45:19;8.77;;;7.10;;
553;SDS011;59;48.778;9.156;2022-08-25T06:47:45;9.40;;;7.00;;
553;SDS011;59;48.778;9.156;2022-08-25T06:50:10;7.77;;;6.33;;
553;SDS011;59;48.778;9.156;2022-08-25T06:52:36;7.83;;;6.10;;
553;SDS011;59;48.778;9.156;2022-08-25T06:55:02;10.27;;;6.20;;
553;SDS011;59;48.778;9.156;2022-08-25T06:57:27;8.00;;;5.90;;
553;SDS011;59;48.778;9.156;2022-08-25T06:59:53;8.10;;;6.20;;
553;SDS011;59;48.778;9.156;2022-08-25T07:02:19;6.47;;;6.13;;
553;SDS011;59;48.778;9.156;2022-08-25T07:04:45;9.33;;;6.50;;
553;SDS011;59;48.778;9.156;2022-08-25T07:07:10;14.50;;;7.37;;
553;SDS011;59;48.778;9.156;2022-08-25T07:09:36;12.80;;;7.33;;
553;SDS011;59;48.778;9.156;2022-08-25T07:12:02;11.40;;;7.50;;
553;SDS011;59;48.778;9.156;2022-08-25T07:14:29;9.53;;;6.67;;
553;SDS011;59;48.778;9.156;2022-08-25T07:16:55;8.97;;;6.77;;
553;SDS011;59;48.778;9.156;2022-08-25T07:19:21;8.40;;;6.47;;
553;SDS011;59;48.778;9.156;2022-08-25T07:21:48;11.03;;;6.80;;
553;SDS011;59;48.778;9.156;2022-08-25T07:24:15;8.33;;;6.30;;
553;SDS011;59;48.778;9.156;2022-08-25T07:26:41;10.87;;;7.77;;
553;SDS011;59;48.778;9.156;2022-08-25T07:29:09;8.03;;;6.70;;
553;SDS011;59;48.778;9.156;2022-08-25T07:31:42;8.70;;;6.63;;
553;SDS011;59;48.778;9.156;2022-08-25T07:34:07;8.60;;;7.20;;
553;SDS011;59;48.778;9.156;2022-08-25T07:36:52;8.43;;;6.57;;
553;SDS011;59;48.778;9.156;2022-08-25T07:39:18;9.20;;;7.30;;
553;SDS011;59;48.778;9.156;2022-08-25T07:41:44;9.67;;;7.10;;
553;SDS011;59;48.778;9.156;2022-08-25T07:44:10;8.50;;;6.90;;
553;SDS011;59;48.778;9.156;2022-08-25T07:46:36;8.33;;;7.17;;
553;SDS011;59;48.778;9.156;2022-08-25T07:49:02;8.40;;;6.30;;
553;SDS011;59;48.778;9.156;2022-08-25T07:51:29;7.33;;;6.40;;
553;SDS011;59;48.778;9.156;2022-08-25T07:53:55;7.47;;;6.33;;
553;SDS011;59;48.778;9.156;2022-08-25T07:56:20;9.00;;;6.60;;
553;SDS011;59;48.778;9.156;2022-08-25T07:58:46;8.17;;;6.50;;
553;SDS011;59;48.778;9.156;2022-08-25T08:01:20;10.50;;;7.03;;
553;SDS011;59;48.778;9.156;2022-08-25T08:03:46;10.20;;;7.57;;
553;SDS011;59;48.778;9.156;2022-08-25T08:06:13;10.20;;;7.77;;
553;SDS011;59;48.778;9.156;2022-08-25T08:08:42;8.80;;;7.23;;
553;SDS011;59;48.778;9.156;2022-08-25T08:11:20;10.70;;;7.07;;
553;SDS011;59;48.778;9.156;2022-08-25T08:13:51;8.93;;;6.50;;
553;SDS011;59;48.778;9.156;2022-08-25T08:16:18;9.40;;;7.57;;
553;SDS011;59;48.778;9.156;2022-08-25T08:18:46;8.63;;;7.53;;
553;SDS011;59;48.778;9.156;2022-08-25T08:21:12;9.80;;;6.80;;
553;SDS011;59;48.778;9.156;2022-08-25T08:23:39;9.13;;;6.63;;
553;SDS011;59;48.778;9.156;2022-08-25T08:26:05;9.20;;;6.53;;
553;SDS011;59;48.778;9.156;2022-08-25T08:28:31;8.83;;;6.80;;
553;SDS011;59;48.778;9.156;2022-08-25T08:30:56;12.20;;;7.07;;
553;SDS011;59;48.778;9.156;2022-08-25T08:33:22;9.30;;;7.13;;
553;SDS011;59;48.778;9.156;2022-08-25T08:35:59;7.80;;;6.83;;
553;SDS011;59;48.778;9.156;2022-08-25T08:38:30;12.53;;;6.37;;
553;SDS011;59;48.778;9.156;2022-08-25T08:41:05;9.90;;;6.70;;
553;SDS011;59;48.778;9.156;2022-08-25T08:43:52;13.40;;;6.70;;
553;SDS011;59;48.778;9.156;2022-08-25T08:52:23;9.33;;;7.00;;
553;SDS011;59;48.778;9.156;2022-08-25T08:57:58;9.70;;;7.17;;
553;SDS011;59;48.778;9.156;2022-08-25T09:00:25;8.43;;;6.70;;
553;SDS011;59;48.778;9.156;2022-08-25T09:02:53;10.03;;;7.30;;
553;SDS011;59;48.778;9.156;2022-08-25T09:05:24;8.87;;;6.60;;
553;SDS011;59;48.778;9.156;2022-08-25T09:10:21;8.87;;;7.10;;
553;SDS011;59;48.778;9.156;2022-08-25T09:15:35;10.87;;;6.37;;
553;SDS011;59;48.778;9.156;2022-08-25T09:18:27;7.73;;;6.37;;
553;SDS011;59;48.778;9.156;2022-08-25T09:26:28;12.87;;;7.17;;
553;SDS011;59;48.778;9.156;2022-08-25T09:29:01;7.00;;;6.27;;
553;SDS011;59;48.778;9.156;2022-08-25T09:31:31;7.27;;;6.20;;
553;SDS011;59;48.778;9.156;2022-08-25T09:34:01;8.00;;;6.43;;
553;SDS011;59;48.778;9.156;2022-08-25T09:36:30;7.07;;;6.20;;
553;SDS011;59;48.778;9.156;2022-08-25T09:38:57;6.73;;;5.97;;
553;SDS011;59;48.778;9.156;2022-08-25T09:49:42;6.80;;;6.30;;
553;SDS011;59;48.778;9.156;2022-08-25T09:52:25;6.57;;;6.03;;
553;SDS011;59;48.778;9.156;2022-08-25T09:54:57;8.70;;;6.50;;
553;SDS011;59;48.778;9.156;2022-08-25T09:57:48;10.03;;;6.30;;
553;SDS011;59;48.778;9.156;2022-08-25T10:05:31;7.87;;;6.23;;
553;SDS011;59;48.778;9.156;2022-08-25T10:08:00;9.73;;;6.60;;
553;SDS011;59;48.778;9.156;2022-08-25T10:12:59;7.60;;;6.70;;
553;SDS011;59;48.778;9.156;2022-08-25T10:15:32;7.67;;;6.50;;
553;SDS011;59;48.778;9.156;2022-08-25T10:23:39;6.40;;;6.00;;
553;SDS011;59;48.778;9.156;2022-08-25T10:26:10;7.50;;;6.43;;
553;SDS011;59;48.778;9.156;2022-08-25T10:29:21;7.37;;;5.83;;
553;SDS011;59;48.778;9.156;2022-08-25T10:31:56;11.20;;;6.57;;
553;SDS011;59;48.778;9.156;2022-08-25T10:42:29;6.63;;;5.40;;
553;SDS011;59;48.778;9.156;2022-08-25T10:50:39;8.13;;;5.67;;
553;SDS011;59;48.778;9.156;2022-08-25T10:53:39;6.67;;;5.40;;
553;SDS011;59;48.778;9.156;2022-08-25T11:01:38;6.70;;;5.33;;
553;SDS011;59;48.778;9.156;2022-08-25T11:04:27;6.87;;;5.70;;
553;SDS011;59;48.778;9.156;2022-08-25T11:09:36;7.53;;;5.50;;
553;SDS011;59;48.778;9.156;2022-08-25T11:12:06;7.33;;;5.47;;
553;SDS011;59;48.778;9.156;2022-08-25T11:14:51;5.40;;;4.80;;
553;SDS011;59;48.778;9.156;2022-08-25T11:17:24;6.30;;;4.80;;
553;SDS011;59;48.778;9.156;2022-08-25T11:20:13;4.17;;;3.93;;
553;SDS011;59;48.778;9.156;2022-08-25T11:23:26;5.63;;;4.27;;
553;SDS011;59;48.778;9.156;2022-08-25T11:25:33;7.63;;;4.53;;
553;SDS011;59;48.778;9.156;2022-08-25T11:30:51;4.93;;;4.10;;
553;SDS011;59;48.778;9.156;2022-08-25T11:33:17;5.40;;;4.33;;
553;SDS011;59;48.778;9.156;2022-08-25T11:35:54;3.60;;;3.43;;
553;SDS011;59;48.778;9.156;2022-08-25T11:52:02;5.03;;;4.37;;
553;SDS011;59;48.778;9.156;2022-08-25T11:54:34;5.10;;;4.83;;
553;SDS011;59;48.778;9.156;2022-08-25T11:57:06;5.17;;;3.90;;
553;SDS011;59;48.778;9.156;2022-08-25T12:02:35;6.50;;;4.40;;
553;SDS011;59;48.778;9.156;2022-08-25T12:10:13;4.50;;;4.10;;
553;SDS011;59;48.778;9.156;2022-08-25T12:23:38;8.10;;;4.50;;
553;SDS011;59;48.778;9.156;2022-08-25T12:34:42;5.70;;;4.27;;
553;SDS011;59;48.778;9.156;2022-08-25T12:37:21;9.77;;;4.20;;
553;SDS011;59;48.778;9.156;2022-08-25T12:45:07;5.00;;;3.93;;
553;SDS011;59;48.778;9.156;2022-08-25T12:47:40;4.90;;;4.37;;
553;SDS011;59;48.778;9.156;2022-08-25T12:55:49;4.87;;;4.47;;
553;SDS011;59;48.778;9.156;2022-08-25T12:58:18;5.07;;;4.53;;
553;SDS011;59;48.778;9.156;2022-08-25T13:01:09;4.70;;;4.37;;
553;SDS011;59;48.778;9.156;2022-08-25T13:12:32;5.33;;;4.07;;
553;SDS011;59;48.778;9.156;2022-08-25T13:15:02;6.63;;;4.00;;
553;SDS011;59;48.778;9.156;2022-08-25T13:17:30;4.60;;;3.67;;
553;SDS011;59;48.778;9.156;2022-08-25T13:22:58;3.90;;;3.73;;
553;SDS011;59;48.778;9.156;2022-08-25T13:25:25;4.87;;;3.63;;
553;SDS011;59;48.778;9.156;2022-08-25T13:27:57;8.50;;;4.20;;
553;SDS011;59;48.778;9.156;2022-08-25T13:30:27;5.23;;;4.13;;
553;SDS011;59;48.778;9.156;2022-08-25T13:32:58;4.63;;;4.37;;
553;SDS011;59;48.778;9.156;2022-08-25T13:35:28;4.90;;;3.70;;
553;SDS011;59;48.778;9.156;2022-08-25T13:38:12;4.57;;;4.20;;
553;SDS011;59;48.778;9.156;2022-08-25T13:40:39;6.27;;;4.70;;
553;SDS011;59;48.778;9.156;2022-08-25T13:43:06;5.40;;;4.50;;
553;SDS011;59;48.778;9.156;2022-08-25T13:45:39;5.00;;;4.60;;
553;SDS011;59;48.778;9.156;2022-08-25T13:48:07;8.60;;;4.60;;
553;SDS011;59;48.778;9.156;2022-08-25T13:50:38;4.33;;;4.07;;
553;SDS011;59;48.778;9.156;2022-08-25T13:53:21;5.60;;;4.07;;
553;SDS011;59;48.778;9.156;2022-08-25T13:55:59;4.47;;;3.50;;
553;SDS011;59;48.778;9.156;2022-08-25T13:58:27;4.50;;;3.90;;
553;SDS011;59;48.778;9.156;2022-08-25T14:03:35;5.73;;;4.20;;
553;SDS011;59;48.778;9.156;2022-08-25T14:06:36;9.23;;;3.80;;
553;SDS011;59;48.778;9.156;2022-08-25T14:14:10;4.47;;;4.00;;
553;SDS011;59;48.778;9.156;2022-08-25T14:16:39;7.10;;;4.20;;
553;SDS011;59;48.778;9.156;2022-08-25T14:19:16;3.67;;;3.50;;
553;SDS011;59;48.778;9.156;2022-08-25T14:21:43;4.40;;;4.10;;
553;SDS011;59;48.778;9.156;2022-08-25T14:24:08;4.40;;;4.03;;
553;SDS011;59;48.778;9.156;2022-08-25T14:26:35;3.77;;;3.60;;
553;SDS011;59;48.778;9.156;2022-08-25T14:29:01;5.53;;;4.33;;
553;SDS011;59;48.778;9.156;2022-08-25T14:31:32;4.23;;;3.60;;
553;SDS011;59;48.778;9.156;2022-08-25T14:37:18;4.00;;;3.63;;
553;SDS011;59;48.778;9.156;2022-08-25T14:39:45;4.83;;;3.90;;
553;SDS011;59;48.778;9.156;2022-08-25T14:42:11;4.00;;;3.80;;
553;SDS011;59;48.778;9.156;2022-08-25T14:44:37;4.43;;;4.13;;
553;SDS011;59;48.778;9.156;2022-08-25T14:47:03;7.87;;;3.70;;
553;SDS011;59;48.778;9.156;2022-08-25T14:49:32;5.13;;;3.77;;
553;SDS011;59;48.778;9.156;2022-08-25T14:52:00;4.60;;;3.90;;
553;SDS011;59;48.778;9.156;2022-08-25T14:54:33;5.70;;;4.00;;
553;SDS011;59;48.778;9.156;2022-08-25T14:56:59;6.07;;;4.20;;
553;SDS011;59;48.778;9.156;2022-08-25T14:59:25;4.70;;;4.07;;
553;SDS011;59;48.778;9.156;2022-08-25T15:01:51;5.57;;;4.17;;
553;SDS011;59;48.778;9.156;2022-08-25T15:04:20;4.40;;;3.90;;
553;SDS011;59;48.778;9.156;2022-08-25T15:06:50;4.30;;;4.00;;
553;SDS011;59;48.778;9.156;2022-08-25T15:09:21;5.67;;;4.33;;
553;SDS011;59;48.778;9.156;2022-08-25T15:11:48;6.03;;;5.20;;
553;SDS011;59;48.778;9.156;2022-08-25T15:14:16;5.00;;;4.63;;
553;SDS011;59;48.778;9.156;2022-08-25T15:16:53;6.00;;;4.17;;
553;SDS011;59;48.778;9.156;2022-08-25T15:19:20;5.17;;;4.60;;
553;SDS011;59;48.778;9.156;2022-08-25T15:21:47;4.33;;;3.90;;
553;SDS011;59;48.778;9.156;2022-08-25T15:24:14;4.70;;;4.40;;
553;SDS011;59;48.778;9.156;2022-08-25T15:26:47;5.47;;;4.07;;
553;SDS011;59;48.778;9.156;2022-08-25T15:29:19;4.77;;;4.30;;
553;SDS011;59;48.778;9.156;2022-08-25T15:31:45;4.60;;;4.20;;
553;SDS011;59;48.778;9.156;2022-08-25T15:34:11;4.10;;;3.90;;
553;SDS011;59;48.778;9.156;2022-08-25T15:36:37;4.33;;;4.03;;
553;SDS011;59;48.778;9.156;2022-08-25T15:39:03;4.40;;;4.10;;
553;SDS011;59;48.778;9.156;2022-08-25T15:41:30;4.93;;;4.43;;
553;SDS011;59;48.778;9.156;2022-08-25T15:43:57;4.60;;;4.30;;
553;SDS011;59;48.778;9.156;2022-08-25T15:46:24;5.83;;;4.37;;
553;SDS011;59;48.778;9.156;2022-08-25T15:48:53;4.87;;;4.57;;
553;SDS011;59;48.778;9.156;2022-08-25T15:51:18;4.70;;;4.40;;
553;SDS011;59;48.778;9.156;2022-08-25T15:53:44;7.43;;;4.10;;
553;SDS011;59;48.778;9.156;2022-08-25T15:56:10;4.60;;;4.30;;
553;SDS011;59;48.778;9.156;2022-08-25T15:58:40;5.87;;;4.40;;
553;SDS011;59;48.778;9.156;2022-08-25T16:01:05;5.70;;;4.17;;
553;SDS011;59;48.778;9.156;2022-08-25T16:03:31;4.40;;;4.00;;
553;SDS011;59;48.778;9.156;2022-08-25T16:05:57;5.20;;;4.50;;
553;SDS011;59;48.778;9.156;2022-08-25T16:08:22;4.20;;;4.00;;
553;SDS011;59;48.778;9.156;2022-08-25T16:10:48;4.00;;;3.87;;
553;SDS011;59;48.778;9.156;2022-08-25T16:13:14;4.80;;;4.23;;
553;SDS011;59;48.778;9.156;2022-08-25T16:15:39;4.87;;;4.57;;
553;SDS011;59;48.778;9.156;2022-08-25T16:18:05;5.70;;;4.20;;
553;SDS011;59;48.778;9.156;2022-08-25T16:20:32;5.53;;;4.30;;
553;SDS011;59;48.778;9.156;2022-08-25T16:22:58;4.57;;;4.27;;
553;SDS011;59;48.778;9.156;2022-08-25T16:25:26;4.70;;;3.63;;
553;SDS011;59;48.778;9.156;2022-08-25T16:27:52;4.70;;;4.20;;
553;SDS011;59;48.778;9.156;2022-08-25T16:30:18;4.60;;;4.30;;
553;SDS011;59;48.778;9.156;2022-08-25T16:32:45;6.13;;;4.40;;
553;SDS011;59;48.778;9.156;2022-08-25T16:35:12;4.60;;;4.30;;
553;SDS011;59;48.778;9.156;2022-08-25T16:37:37;4.93;;;4.20;;
553;SDS011;59;48.778;9.156;2022-08-25T16:40:04;3.80;;;3.60;;
553;SDS011;59;48.778;9.156;2022-08-25T16:42:31;3.70;;;3.50;;
553;SDS011;59;48.778;9.156;2022-08-25T16:44:56;4.47;;;4.27;;
553;SDS011;59;48.778;9.156;2022-08-25T16:47:22;4.23;;;3.97;;
553;SDS011;59;48.778;9.156;2022-08-25T16:49:48;3.80;;;3.70;;
553;SDS011;59;48.778;9.156;2022-08-25T16:52:14;4.20;;;3.63;;
553;SDS011;59;48.778;9.156;2022-08-25T16:54:58;3.83;;;3.60;;
553;SDS011;59;48.778;9.156;2022-08-25T16:57:41;4.30;;;4.00;;
553;SDS011;59;48.778;9.156;2022-08-25T17:00:12;3.67;;;3.50;;
553;SDS011;59;48.778;9.156;2022-08-25T17:02:40;3.67;;;3.47;;
553;SDS011;59;48.778;9.156;2022-08-25T17:05:06;4.00;;;3.50;;
553;SDS011;59;48.778;9.156;2022-08-25T17:07:33;4.00;;;3.77;;
553;SDS011;59;48.778;9.156;2022-08-25T17:09:59;4.00;;;3.70;;
553;SDS011;59;48.778;9.156;2022-08-25T17:12:25;4.17;;;3.93;;
553;SDS011;59;48.778;9.156;2022-08-25T17:14:51;4.93;;;4.10;;
553;SDS011;59;48.778;9.156;2022-08-25T17:17:17;5.23;;;3.97;;
553;SDS011;59;48.778;9.156;2022-08-25T17:19:43;4.30;;;4.00;;
553;SDS011;59;48.778;9.156;2022-08-25T17:22:09;4.63;;;4.13;;
553;SDS011;59;48.778;9.156;2022-08-25T17:24:38;4.27;;;4.00;;
553;SDS011;59;48.778;9.156;2022-08-25T17:27:04;4.43;;;4.13;;
553;SDS011;59;48.778;9.156;2022-08-25T17:29:30;3.70;;;3.50;;
553;SDS011;59;48.778;9.156;2022-08-25T17:31:57;5.17;;;4.47;;
553;SDS011;59;48.778;9.156;2022-08-25T17:34:23;4.83;;;4.40;;
553;SDS011;59;48.778;9.156;2022-08-25T17:36:49;4.97;;;4.63;;
553;SDS011;59;48.778;9.156;2022-08-25T17:39:15;5.17;;;4.70;;
553;SDS011;59;48.778;9.156;2022-08-25T17:41:42;4.83;;;4.60;;
553;SDS011;59;48.778;9.156;2022-08-25T17:44:09;4.57;;;4.30;;
553;SDS011;59;48.778;9.156;2022-08-25T17:46:35;4.37;;;4.07;;
553;SDS011;59;48.778;9.156;2022-08-25T17:49:00;4.63;;;4.33;;
553;SDS011;59;48.778;9.156;2022-08-25T17:51:26;4.27;;;4.00;;
553;SDS011;59;48.778;9.156;2022-08-25T17:53:52;3.83;;;3.63;;
553;SDS011;59;48.778;9.156;2022-08-25T17:56:19;4.03;;;3.83;;
553;SDS011;59;48.778;9.156;2022-08-25T17:58:46;4.30;;;4.00;;
553;SDS011;59;48.778;9.156;2022-08-25T18:01:16;4.30;;;4.10;;
553;SDS011;59;48.778;9.156;2022-08-25T18:03:44;6.80;;;3.80;;
553;SDS011;59;48.778;9.156;2022-08-25T18:06:11;4.50;;;4.13;;
553;SDS011;59;48.778;9.156;2022-08-25T18:08:38;3.73;;;3.53;;
553;SDS011;59;48.778;9.156;2022-08-25T18:11:04;3.63;;;3.43;;
553;SDS011;59;48.778;9.156;2022-08-25T18:13:30;4.17;;;3.77;;
553;SDS011;59;48.778;9.156;2022-08-25T18:15:56;3.47;;;3.30;;
553;SDS011;59;48.778;9.156;2022-08-25T18:18:22;3.70;;;3.50;;
553;SDS011;59;48.778;9.156;2022-08-25T18:20:48;3.70;;;3.50;;
553;SDS011;59;48.778;9.156;2022-08-25T18:23:13;3.77;;;3.57;;
553;SDS011;59;48.778;9.156;2022-08-25T18:25:39;4.03;;;3.30;;
553;SDS011;59;48.778;9.156;2022-08-25T18:28:06;4.17;;;3.80;;
553;SDS011;59;48.778;9.156;2022-08-25T18:30:31;3.70;;;3.50;;
553;SDS011;59;48.778;9.156;2022-08-25T18:32:58;4.37;;;4.10;;